Terminal Aerodrome Forecast
Issued by NWS New Orleans/Baton Rouge, LA

Home | Current Version | Previous Version | Text Only | Print | Product List | Glossary On
Versions: 1 2 3 4 5 6 7 8 9 10 11 12 13 14 15 16 17 18 19 20 21 22 23 24 25 26 27 28 29 30 31
000
FTUS44 KLIX 242325
TAFNEW
TAF
KNEW 242325Z 2500/2524 14020G45KT 1SM +TSRA BKN012CB
     FM250100 20012KT P6SM BKN025
     FM250500 17009KT P6SM BKN050
      TEMPO 2515/2518 VRB20KT 2SM SHRA BKN025=

USA.gov is the U.S. government's official web portal to all federal, state and local government web resources and services.